| time (UTC) | temp C | wind direction | speed KPH | gust KPH | rain 1hr cm | rain 24hr cm | rain mn cm | humidity % | barometer mb |
| 20260506225005 | 28 | 193 | 11.3 | 22.5 | 0.00 | 0.00 | 0.00 | 13 | |
| 20260506224004 | 28 | 145 | 14.5 | 25.7 | 0.00 | 0.00 | 0.00 | 13 | |
| 20260506222004 | 28 | 172 | 11.3 | 22.5 | 0.00 | 0.00 | 0.00 | 13 | |
| 20260506221004 | 28 | 172 | 11.3 | 29.0 | 0.00 | 0.00 | 0.00 | 13 | |
| 20260506220005 | 27 | 150 | 17.7 | 27.4 | 0.00 | 0.00 | 0.00 | 14 | |
| 20260506215004 | 28 | 170 | 8.0 | 24.1 | 0.00 | 0.00 | 0.00 | 13 | |
| 20260506214004 | 28 | 129 | 9.7 | 25.7 | 0.00 | 0.00 | 0.00 | 14 | |
| 20260506213005 | 27 | 212 | 8.0 | 20.9 | 0.00 | 0.00 | 0.00 | 13 | |
| 20260506212005 | 27 | 172 | 11.3 | 20.9 | 0.00 | 0.00 | 0.00 | 13 | |
| 20260506211004 | 27 | 143 | 11.3 | 19.3 | 0.00 | 0.00 | 0.00 | 12 | |
| 20260506210006 | 27 | 239 | 3.2 | 16.1 | 0.00 | 0.00 | 0.00 | 13 | |
| 20260506205005 | 27 | 94 | 12.9 | 20.9 | 0.00 | 0.00 | 0.00 | 13 | |
| 20260506204004 | 27 | 87 | 9.7 | 24.1 | 0.00 | 0.00 | 0.00 | 14 | |
| 20260506203005 | 26 | 49 | 9.7 | 16.1 | 0.00 | 0.00 | 0.00 | 14 | |
| 20260506202005 | 26 | 16 | 11.3 | 19.3 | 0.00 | 0.00 | 0.00 | 14 | |
| 20260506201008 | 26 | 64 | 11.3 | 20.9 | 0.00 | 0.00 | 0.00 | 15 | |
| 20260506200004 | 26 | 72 | 9.7 | 14.5 | 0.00 | 0.00 | 0.00 | 16 | |
| 20260506195006 | 26 | 35 | 4.8 | 20.9 | 0.00 | 0.00 | 0.00 | 16 | |
| 20260506192005 | 26 | 32 | 4.8 | 12.9 | 0.00 | 0.00 | 0.00 | 17 | |
| 20260506191005 | 26 | 1 | 9.7 | 20.9 | 0.00 | 0.00 | 0.00 | 17 | |
| 20260506185005 | 25 | 91 | 8.0 | 16.1 | 0.00 | 0.00 | 0.00 | 18 | |
| 20260506184004 | 25 | 9 | 9.7 | 14.5 | 0.00 | 0.00 | 0.00 | 20 | |
| 20260506183006 | 24 | 78 | 8.0 | 16.1 | 0.00 | 0.00 | 0.00 | 19 | |
| 20260506180005 | 24 | 10 | 4.8 | 12.9 | 0.00 | 0.00 | 0.00 | 23 | |
| 20260506175005 | 23 | 55 | 8.0 | 14.5 | 0.00 | 0.00 | 0.00 | 24 | |
| 20260506173005 | 23 | 5 | 4.8 | 12.9 | 0.00 | 0.00 | 0.00 | 26 | |
| 20260506172004 | 22 | 12 | 11.3 | 19.3 | 0.00 | 0.00 | 0.00 | 27 | |
| 20260506171004 | 22 | 355 | 11.3 | 14.5 | 0.00 | 0.00 | 0.00 | 28 | |
| 20260506170005 | 22 | 14 | 4.8 | 11.3 | 0.00 | 0.00 | 0.00 | 28 | |
| 20260506164005 | 21 | 354 | 6.4 | 12.9 | 0.00 | 0.00 | 0.00 | 29 | |
| 20260506163004 | 21 | 346 | 8.0 | 16.1 | 0.00 | 0.00 | 0.00 | 29 | |
| 20260506154005 | 20 | 324 | 11.3 | 19.3 | 0.00 | 0.00 | 0.00 | 32 | |
| 20260506152004 | 19 | 324 | 9.7 | 16.1 | 0.00 | 0.00 | 0.00 | 33 | |
| 20260506151004 | 19 | 337 | 8.0 | 14.5 | 0.00 | 0.00 | 0.00 | 32 | |
| 20260506150005 | 19 | 325 | 11.3 | 14.5 | 0.00 | 0.00 | 0.00 | 33 | |
| 20260506145004 | 18 | 323 | 11.3 | 14.5 | 0.00 | 0.00 | 0.00 | 33 | |
| 20260506144005 | 19 | 340 | 9.7 | 12.9 | 0.00 | 0.00 | 0.00 | 33 | |
| 20260506142004 | 18 | 335 | 9.7 | 14.5 | 0.00 | 0.00 | 0.00 | 34 | |
| 20260506141005 | 18 | 314 | 9.7 | 16.1 | 0.00 | 0.00 | 0.00 | 34 | |
| 20260506140005 | 18 | 344 | 4.8 | 11.3 | 0.00 | 0.00 | 0.00 | 34 | |
| 20260506135004 | 18 | 353 | 3.2 | 8.0 | 0.00 | 0.00 | 0.00 | 34 | |
| 20260506134004 | 18 | 316 | 4.8 | 14.5 | 0.00 | 0.00 | 0.00 | 34 | |
| 20260506133005 | 18 | 309 | 11.3 | 16.1 | 0.00 | 0.00 | 0.00 | 35 | |
| 20260506132005 | 17 | 306 | 9.7 | 14.5 | 0.00 | 0.00 | 0.00 | 35 | |
| 20260506131004 | 17 | 305 | 8.0 | 14.5 | 0.00 | 0.00 | 0.00 | 36 | |
| 20260506130005 | 17 | 300 | 9.7 | 16.1 | 0.00 | 0.00 | 0.00 | 36 | |
| 20260506125005 | 17 | 308 | 8.0 | 14.5 | 0.00 | 0.00 | 0.00 | 36 | |
| 20260506124005 | 17 | 302 | 11.3 | 16.1 | 0.00 | 0.00 | 0.00 | 36 | |
| 20260506123005 | 17 | 305 | 11.3 | 16.1 | 0.00 | 0.00 | 0.00 | 36 | |
| 20260506122006 | 17 | 309 | 9.7 | 16.1 | 0.00 | 0.00 | 0.00 | 36 | |
| 20260506121005 | 17 | 312 | 11.3 | 19.3 | 0.00 | 0.00 | 0.00 | 36 | |
| 20260506115006 | 17 | 314 | 9.7 | 14.5 | 0.00 | 0.00 | 0.00 | 36 | |
| 20260506113005 | 17 | 316 | 9.7 | 14.5 | 0.00 | 0.00 | 0.00 | 36 | |
| 20260506112005 | 17 | 307 | 11.3 | 19.3 | 0.00 | 0.00 | 0.00 | 36 | |
| 20260506111005 | 17 | 305 | 12.9 | 16.1 | 0.00 | 0.00 | 0.00 | 36 | |
| 20260506105006 | 17 | 303 | 11.3 | 19.3 | 0.00 | 0.00 | 0.00 | 36 | |
| 20260506104005 | 17 | 301 | 11.3 | 19.3 | 0.00 | 0.00 | 0.00 | 36 | |
| 20260506103005 | 17 | 307 | 9.7 | 16.1 | 0.00 | 0.00 | 0.00 | 36 | |
| 20260506102006 | 18 | 303 | 11.3 | 19.3 | 0.00 | 0.00 | 0.00 | 35 | |
| 20260506095006 | 18 | 296 | 11.3 | 19.3 | 0.00 | 0.00 | 0.00 | 34 | |
| 20260506094005 | 18 | 296 | 9.7 | 16.1 | 0.00 | 0.00 | 0.00 | 34 | |
| 20260506093005 | 18 | 297 | 8.0 | 14.5 | 0.00 | 0.00 | 0.00 | 34 | |
| 20260506091005 | 18 | 302 | 9.7 | 16.1 | 0.00 | 0.00 | 0.00 | 34 | |
| 20260506090004 | 18 | 301 | 9.7 | 16.1 | 0.00 | 0.00 | 0.00 | 33 | |
| 20260506082007 | 19 | 296 | 11.3 | 19.3 | 0.00 | 0.00 | 0.00 | 32 | |
| 20260506081007 | 19 | 296 | 8.0 | 16.1 | 0.00 | 0.00 | 0.00 | 32 | |
| 20260506073006 | 19 | 304 | 9.7 | 19.3 | 0.00 | 0.00 | 0.00 | 32 | |
| 20260506072005 | 20 | 301 | 9.7 | 19.3 | 0.00 | 0.00 | 0.00 | 32 | |
| 20260506071005 | 19 | 295 | 9.7 | 16.1 | 0.00 | 0.00 | 0.00 | 32 | |
| 20260506062005 | 20 | 291 | 11.3 | 16.1 | 0.00 | 0.00 | 0.00 | 31 | |
| 20260506061006 | 20 | 295 | 11.3 | 19.3 | 0.00 | 0.00 | 0.00 | 31 | |
| 20260506051006 | 21 | 304 | 6.4 | 14.5 | 0.00 | 0.00 | 0.00 | 30 | |
| 20260506045005 | 21 | 296 | 4.8 | 12.9 | 0.00 | 0.00 | 0.00 | 29 | |
| 20260506044005 | 21 | 328 | 3.2 | 8.0 | 0.00 | 0.00 | 0.00 | 29 | |
| 20260506043005 | 22 | 335 | 8.0 | 16.1 | 0.00 | 0.00 | 0.00 | 28 | |
| 20260506042007 | 21 | 341 | 8.0 | 16.1 | 0.00 | 0.00 | 0.00 | 28 | |
| 20260506041006 | 22 | 334 | 8.0 | 16.1 | 0.00 | 0.00 | 0.00 | 28 | |
| 20260506040004 | 22 | 342 | 8.0 | 16.1 | 0.00 | 0.00 | 0.00 | 28 | |
| 20260506035006 | 22 | 355 | 8.0 | 20.9 | 0.00 | 0.00 | 0.00 | 28 | |
| 20260506034005 | 22 | 356 | 11.3 | 20.9 | 0.00 | 0.00 | 0.00 | 28 | |
| 20260506033006 | 22 | 6 | 11.3 | 19.3 | 0.00 | 0.00 | 0.00 | 27 | |
| 20260506032006 | 22 | 11 | 16.1 | 25.7 | 0.00 | 0.00 | 0.00 | 27 | |
| 20260506031006 | 22 | 7 | 14.5 | 25.7 | 0.00 | 0.00 | 0.00 | 26 | |
| 20260506030005 | 22 | 8 | 17.7 | 24.1 | 0.00 | 0.00 | 0.00 | 26 | |
| 20260506025006 | 23 | 11 | 12.9 | 22.5 | 0.00 | 0.00 | 0.00 | 25 | |
| 20260506024005 | 23 | 16 | 8.0 | 19.3 | 0.00 | 0.00 | 0.00 | 25 | |
| 20260506023006 | 23 | 0 | 16.1 | 24.1 | 0.00 | 0.00 | 0.00 | 24 | |
| 20260506022005 | 23 | 1 | 14.5 | 24.1 | 0.00 | 0.00 | 0.00 | 23 | |
| 20260506021005 | 23 | 14 | 16.1 | 22.5 | 0.00 | 0.00 | 0.00 | 22 | |
| 20260506020004 | 23 | 3 | 14.5 | 20.9 | 0.00 | 0.00 | 0.00 | 20 | |
| 20260506015004 | 24 | 52 | 11.3 | 22.5 | 0.00 | 0.00 | 0.00 | 20 | |
| 20260506014013 | 24 | 21 | 14.5 | 22.5 | 0.00 | 0.00 | 0.00 | 19 | |
| 20260506013007 | 24 | 112 | 9.7 | 19.3 | 0.00 | 0.00 | 0.00 | 16 | |
| 20260506012006 | 24 | 84 | 12.9 | 20.9 | 0.00 | 0.00 | 0.00 | 16 | |
| 20260506011007 | 24 | 44 | 4.8 | 22.5 | 0.00 | 0.00 | 0.00 | 16 | |
| 20260506010008 | 25 | 70 | 8.0 | 20.9 | 0.00 | 0.00 | 0.00 | 16 | |
| 20260506004008 | 25 | 79 | 9.7 | 19.3 | 0.00 | 0.00 | 0.00 | 15 | |
| 20260506003006 | 25 | 43 | 14.5 | 22.5 | 0.00 | 0.00 | 0.00 | 16 | |
| 20260506002007 | 25 | 70 | 16.1 | 25.7 | 0.00 | 0.00 | 0.00 | 16 | |
| 20260506001005 | 25 | 111 | 16.1 | 29.0 | 0.00 | 0.00 | 0.00 | 16 | |
| 20260506000004 | 25 | 61 | 11.3 | 14.5 | 0.00 | 0.00 | 0.00 | 16 | |
| 20260505234004 | 24 | 100 | 3.2 | 16.1 | 0.00 | 0.00 | 0.00 | 16 | |
| 20260505233004 | 24 | 82 | 8.0 | 20.9 | 0.00 | 0.00 | 0.00 | 17 | |
| 20260505232004 | 25 | 30 | 11.3 | 24.1 | 0.00 | 0.00 | 0.00 | 17 |